sensor_id;sensor_type;location;lat;lon;timestamp;P1;durP1;ratioP1;P2;durP2;ratioP2
28844;SDS011;15976;47.938;7.758;2023-02-28T00:00:17;7.18;;;4.35;;
28844;SDS011;15976;47.938;7.758;2023-02-28T00:02:47;5.55;;;3.80;;
28844;SDS011;15976;47.938;7.758;2023-02-28T00:06:37;6.68;;;4.00;;
28844;SDS011;15976;47.938;7.758;2023-02-28T00:13:20;5.30;;;3.80;;
28844;SDS011;15976;47.938;7.758;2023-02-28T00:15:48;5.75;;;3.80;;
28844;SDS011;15976;47.938;7.758;2023-02-28T00:18:28;6.53;;;3.80;;
28844;SDS011;15976;47.938;7.758;2023-02-28T00:20:57;4.95;;;3.92;;
28844;SDS011;15976;47.938;7.758;2023-02-28T00:23:25;5.15;;;3.67;;
28844;SDS011;15976;47.938;7.758;2023-02-28T00:25:53;7.25;;;4.15;;
28844;SDS011;15976;47.938;7.758;2023-02-28T00:28:20;7.85;;;4.13;;
28844;SDS011;15976;47.938;7.758;2023-02-28T00:30:48;4.57;;;3.30;;
28844;SDS011;15976;47.938;7.758;2023-02-28T00:33:15;5.78;;;4.03;;
28844;SDS011;15976;47.938;7.758;2023-02-28T00:35:42;7.00;;;3.95;;
28844;SDS011;15976;47.938;7.758;2023-02-28T00:38:23;7.05;;;3.78;;
28844;SDS011;15976;47.938;7.758;2023-02-28T00:46:40;5.40;;;3.45;;
28844;SDS011;15976;47.938;7.758;2023-02-28T00:49:07;4.80;;;3.20;;
28844;SDS011;15976;47.938;7.758;2023-02-28T00:51:47;4.75;;;3.53;;
28844;SDS011;15976;47.938;7.758;2023-02-28T00:54:18;5.70;;;3.63;;
28844;SDS011;15976;47.938;7.758;2023-02-28T01:01:05;5.65;;;3.67;;
28844;SDS011;15976;47.938;7.758;2023-02-28T01:03:33;5.78;;;3.55;;
28844;SDS011;15976;47.938;7.758;2023-02-28T01:06:00;5.57;;;3.88;;
28844;SDS011;15976;47.938;7.758;2023-02-28T01:08:27;5.50;;;3.80;;
28844;SDS011;15976;47.938;7.758;2023-02-28T01:10:54;5.88;;;3.80;;
28844;SDS011;15976;47.938;7.758;2023-02-28T01:13:21;4.32;;;3.45;;
28844;SDS011;15976;47.938;7.758;2023-02-28T01:15:51;7.68;;;3.80;;
28844;SDS011;15976;47.938;7.758;2023-02-28T01:18:20;5.85;;;4.03;;
28844;SDS011;15976;47.938;7.758;2023-02-28T01:20:48;4.78;;;3.45;;
28844;SDS011;15976;47.938;7.758;2023-02-28T01:23:15;6.32;;;3.42;;
28844;SDS011;15976;47.938;7.758;2023-02-28T01:25:42;4.60;;;3.83;;
28844;SDS011;15976;47.938;7.758;2023-02-28T01:28:09;6.00;;;3.80;;
28844;SDS011;15976;47.938;7.758;2023-02-28T01:30:36;6.18;;;3.92;;
28844;SDS011;15976;47.938;7.758;2023-02-28T01:33:05;6.85;;;4.78;;
28844;SDS011;15976;47.938;7.758;2023-02-28T01:35:35;5.45;;;3.95;;
28844;SDS011;15976;47.938;7.758;2023-02-28T01:38:03;7.88;;;4.32;;
28844;SDS011;15976;47.938;7.758;2023-02-28T01:40:46;9.05;;;4.38;;
28844;SDS011;15976;47.938;7.758;2023-02-28T01:43:24;12.45;;;5.38;;
28844;SDS011;15976;47.938;7.758;2023-02-28T01:45:54;11.80;;;5.25;;
28844;SDS011;15976;47.938;7.758;2023-02-28T01:48:34;10.15;;;5.18;;
28844;SDS011;15976;47.938;7.758;2023-02-28T01:51:12;6.57;;;3.92;;
28844;SDS011;15976;47.938;7.758;2023-02-28T01:53:47;7.45;;;3.80;;
28844;SDS011;15976;47.938;7.758;2023-02-28T01:56:22;7.32;;;4.43;;
28844;SDS011;15976;47.938;7.758;2023-02-28T01:58:53;5.93;;;4.05;;
28844;SDS011;15976;47.938;7.758;2023-02-28T02:01:22;5.05;;;3.88;;
28844;SDS011;15976;47.938;7.758;2023-02-28T02:03:56;6.75;;;3.88;;
28844;SDS011;15976;47.938;7.758;2023-02-28T02:06:45;6.82;;;4.18;;
28844;SDS011;15976;47.938;7.758;2023-02-28T02:09:14;6.70;;;4.20;;
28844;SDS011;15976;47.938;7.758;2023-02-28T02:11:42;6.70;;;3.95;;
28844;SDS011;15976;47.938;7.758;2023-02-28T02:17:45;5.78;;;3.90;;
28844;SDS011;15976;47.938;7.758;2023-02-28T02:22:52;5.72;;;3.80;;
28844;SDS011;15976;47.938;7.758;2023-02-28T02:42:50;7.38;;;4.07;;
28844;SDS011;15976;47.938;7.758;2023-02-28T02:45:32;6.93;;;4.05;;
28844;SDS011;15976;47.938;7.758;2023-02-28T02:48:13;8.80;;;3.65;;
28844;SDS011;15976;47.938;7.758;2023-02-28T02:50:44;5.25;;;3.92;;
28844;SDS011;15976;47.938;7.758;2023-02-28T02:53:15;7.53;;;3.78;;
28844;SDS011;15976;47.938;7.758;2023-02-28T02:55:48;6.07;;;3.95;;
28844;SDS011;15976;47.938;7.758;2023-02-28T02:58:24;6.57;;;4.00;;
28844;SDS011;15976;47.938;7.758;2023-02-28T03:01:00;4.10;;;3.70;;
28844;SDS011;15976;47.938;7.758;2023-02-28T03:03:30;5.50;;;3.95;;
28844;SDS011;15976;47.938;7.758;2023-02-28T03:06:00;7.95;;;3.95;;
28844;SDS011;15976;47.938;7.758;2023-02-28T03:09:53;6.80;;;3.83;;
28844;SDS011;15976;47.938;7.758;2023-02-28T03:12:23;10.48;;;3.92;;
28844;SDS011;15976;47.938;7.758;2023-02-28T03:15:24;6.13;;;3.90;;
28844;SDS011;15976;47.938;7.758;2023-02-28T03:18:04;5.68;;;3.88;;
28844;SDS011;15976;47.938;7.758;2023-02-28T03:26:32;8.07;;;4.15;;
28844;SDS011;15976;47.938;7.758;2023-02-28T03:32:39;5.55;;;4.22;;
28844;SDS011;15976;47.938;7.758;2023-02-28T03:36:08;6.30;;;3.78;;
28844;SDS011;15976;47.938;7.758;2023-02-28T03:38:46;5.97;;;3.90;;
28844;SDS011;15976;47.938;7.758;2023-02-28T03:45:25;4.55;;;3.40;;
28844;SDS011;15976;47.938;7.758;2023-02-28T03:49:40;5.53;;;3.85;;
28844;SDS011;15976;47.938;7.758;2023-02-28T03:53:31;6.22;;;3.90;;
28844;SDS011;15976;47.938;7.758;2023-02-28T03:56:03;6.20;;;3.88;;
28844;SDS011;15976;47.938;7.758;2023-02-28T04:01:31;8.40;;;4.20;;
28844;SDS011;15976;47.938;7.758;2023-02-28T04:04:04;5.40;;;4.00;;
28844;SDS011;15976;47.938;7.758;2023-02-28T04:06:33;5.45;;;3.83;;
28844;SDS011;15976;47.938;7.758;2023-02-28T04:09:01;6.47;;;3.85;;
28844;SDS011;15976;47.938;7.758;2023-02-28T04:11:34;5.30;;;4.13;;
28844;SDS011;15976;47.938;7.758;2023-02-28T04:14:15;6.20;;;3.88;;
28844;SDS011;15976;47.938;7.758;2023-02-28T04:16:42;7.82;;;4.22;;
28844;SDS011;15976;47.938;7.758;2023-02-28T04:19:10;5.57;;;4.07;;
28844;SDS011;15976;47.938;7.758;2023-02-28T04:21:40;6.97;;;4.10;;
28844;SDS011;15976;47.938;7.758;2023-02-28T04:24:09;6.35;;;3.83;;
28844;SDS011;15976;47.938;7.758;2023-02-28T04:26:41;8.60;;;3.93;;
28844;SDS011;15976;47.938;7.758;2023-02-28T04:29:14;6.57;;;3.95;;
28844;SDS011;15976;47.938;7.758;2023-02-28T04:34:12;7.65;;;4.13;;
28844;SDS011;15976;47.938;7.758;2023-02-28T04:36:39;6.90;;;4.13;;
28844;SDS011;15976;47.938;7.758;2023-02-28T04:39:07;7.50;;;4.50;;
28844;SDS011;15976;47.938;7.758;2023-02-28T04:41:36;5.38;;;3.85;;
28844;SDS011;15976;47.938;7.758;2023-02-28T04:44:03;8.95;;;4.70;;
28844;SDS011;15976;47.938;7.758;2023-02-28T04:46:30;5.68;;;3.70;;
28844;SDS011;15976;47.938;7.758;2023-02-28T04:48:57;7.72;;;4.15;;
28844;SDS011;15976;47.938;7.758;2023-02-28T04:51:24;8.07;;;3.83;;
28844;SDS011;15976;47.938;7.758;2023-02-28T04:53:51;6.80;;;4.30;;
28844;SDS011;15976;47.938;7.758;2023-02-28T04:56:19;5.47;;;3.72;;
28844;SDS011;15976;47.938;7.758;2023-02-28T04:58:46;6.28;;;4.25;;
28844;SDS011;15976;47.938;7.758;2023-02-28T05:03:50;4.57;;;3.92;;
28844;SDS011;15976;47.938;7.758;2023-02-28T05:06:18;5.88;;;4.40;;
28844;SDS011;15976;47.938;7.758;2023-02-28T05:08:46;7.93;;;4.22;;
28844;SDS011;15976;47.938;7.758;2023-02-28T05:11:18;5.20;;;4.13;;
28844;SDS011;15976;47.938;7.758;2023-02-28T05:13:48;7.10;;;4.32;;
28844;SDS011;15976;47.938;7.758;2023-02-28T05:16:16;8.63;;;4.85;;
28844;SDS011;15976;47.938;7.758;2023-02-28T05:18:44;9.15;;;4.55;;
28844;SDS011;15976;47.938;7.758;2023-02-28T05:32:53;7.50;;;4.80;;
28844;SDS011;15976;47.938;7.758;2023-02-28T05:35:20;10.38;;;5.82;;
28844;SDS011;15976;47.938;7.758;2023-02-28T05:37:47;8.52;;;5.50;;
28844;SDS011;15976;47.938;7.758;2023-02-28T05:40:14;10.95;;;6.00;;
28844;SDS011;15976;47.938;7.758;2023-02-28T05:46:50;9.02;;;5.60;;
28844;SDS011;15976;47.938;7.758;2023-02-28T05:49:17;8.80;;;5.72;;
28844;SDS011;15976;47.938;7.758;2023-02-28T05:51:44;8.07;;;5.32;;
28844;SDS011;15976;47.938;7.758;2023-02-28T05:54:11;6.63;;;5.40;;
28844;SDS011;15976;47.938;7.758;2023-02-28T06:04:07;9.13;;;5.88;;
28844;SDS011;15976;47.938;7.758;2023-02-28T06:06:51;6.97;;;5.68;;
28844;SDS011;15976;47.938;7.758;2023-02-28T06:09:18;8.35;;;6.13;;
28844;SDS011;15976;47.938;7.758;2023-02-28T06:11:45;9.57;;;6.18;;
28844;SDS011;15976;47.938;7.758;2023-02-28T06:14:14;8.80;;;5.82;;
28844;SDS011;15976;47.938;7.758;2023-02-28T06:16:46;9.45;;;5.88;;
28844;SDS011;15976;47.938;7.758;2023-02-28T06:19:13;9.52;;;6.35;;
28844;SDS011;15976;47.938;7.758;2023-02-28T06:21:41;7.43;;;5.15;;
28844;SDS011;15976;47.938;7.758;2023-02-28T06:24:08;9.35;;;5.85;;
28844;SDS011;15976;47.938;7.758;2023-02-28T06:26:36;8.20;;;5.75;;
28844;SDS011;15976;47.938;7.758;2023-02-28T06:29:03;12.10;;;7.13;;
28844;SDS011;15976;47.938;7.758;2023-02-28T06:31:30;8.77;;;5.63;;
28844;SDS011;15976;47.938;7.758;2023-02-28T06:33:58;13.27;;;5.70;;
28844;SDS011;15976;47.938;7.758;2023-02-28T06:36:25;10.88;;;5.70;;
28844;SDS011;15976;47.938;7.758;2023-02-28T06:40:53;10.52;;;5.55;;
28844;SDS011;15976;47.938;7.758;2023-02-28T06:43:22;7.88;;;4.93;;
28844;SDS011;15976;47.938;7.758;2023-02-28T06:45:53;7.28;;;5.63;;
28844;SDS011;15976;47.938;7.758;2023-02-28T06:48:21;10.32;;;5.82;;
28844;SDS011;15976;47.938;7.758;2023-02-28T06:50:48;8.23;;;5.97;;
28844;SDS011;15976;47.938;7.758;2023-02-28T06:53:16;10.23;;;5.80;;
28844;SDS011;15976;47.938;7.758;2023-02-28T06:55:43;8.40;;;6.07;;
28844;SDS011;15976;47.938;7.758;2023-02-28T06:58:10;7.72;;;5.38;;
28844;SDS011;15976;47.938;7.758;2023-02-28T07:00:42;8.88;;;5.85;;
28844;SDS011;15976;47.938;7.758;2023-02-28T07:03:10;9.93;;;6.38;;
28844;SDS011;15976;47.938;7.758;2023-02-28T07:05:38;9.88;;;6.05;;
28844;SDS011;15976;47.938;7.758;2023-02-28T07:08:06;8.70;;;5.55;;
28844;SDS011;15976;47.938;7.758;2023-02-28T07:10:33;9.63;;;6.13;;
28844;SDS011;15976;47.938;7.758;2023-02-28T07:13:00;11.32;;;6.93;;
28844;SDS011;15976;47.938;7.758;2023-02-28T07:15:27;9.85;;;5.93;;
28844;SDS011;15976;47.938;7.758;2023-02-28T07:18:00;9.77;;;6.15;;
28844;SDS011;15976;47.938;7.758;2023-02-28T07:20:27;10.85;;;6.05;;
28844;SDS011;15976;47.938;7.758;2023-02-28T07:22:54;8.90;;;6.18;;
28844;SDS011;15976;47.938;7.758;2023-02-28T07:25:23;10.30;;;7.00;;
28844;SDS011;15976;47.938;7.758;2023-02-28T07:27:52;8.10;;;5.72;;
28844;SDS011;15976;47.938;7.758;2023-02-28T07:30:20;8.65;;;5.93;;
28844;SDS011;15976;47.938;7.758;2023-02-28T07:32:48;9.00;;;6.10;;
28844;SDS011;15976;47.938;7.758;2023-02-28T07:35:17;9.25;;;5.95;;
28844;SDS011;15976;47.938;7.758;2023-02-28T07:37:45;9.43;;;5.60;;
28844;SDS011;15976;47.938;7.758;2023-02-28T07:40:13;8.45;;;5.35;;
28844;SDS011;15976;47.938;7.758;2023-02-28T07:42:41;7.93;;;5.63;;
28844;SDS011;15976;47.938;7.758;2023-02-28T07:45:08;9.35;;;6.45;;
28844;SDS011;15976;47.938;7.758;2023-02-28T07:47:38;8.90;;;5.40;;
28844;SDS011;15976;47.938;7.758;2023-02-28T07:50:06;10.52;;;6.65;;
28844;SDS011;15976;47.938;7.758;2023-02-28T07:52:36;7.53;;;5.85;;
28844;SDS011;15976;47.938;7.758;2023-02-28T07:55:04;14.02;;;6.38;;
28844;SDS011;15976;47.938;7.758;2023-02-28T07:57:32;10.43;;;6.43;;
28844;SDS011;15976;47.938;7.758;2023-02-28T08:00:00;10.25;;;6.07;;
28844;SDS011;15976;47.938;7.758;2023-02-28T08:02:36;8.00;;;5.90;;
28844;SDS011;15976;47.938;7.758;2023-02-28T08:05:08;11.57;;;6.45;;
28844;SDS011;15976;47.938;7.758;2023-02-28T08:08:50;7.75;;;5.63;;
28844;SDS011;15976;47.938;7.758;2023-02-28T08:21:50;9.75;;;6.03;;
28844;SDS011;15976;47.938;7.758;2023-02-28T08:34:41;11.43;;;7.38;;
28844;SDS011;15976;47.938;7.758;2023-02-28T08:41:29;10.10;;;6.40;;
28844;SDS011;15976;47.938;7.758;2023-02-28T08:43:58;10.70;;;7.15;;
28844;SDS011;15976;47.938;7.758;2023-02-28T08:48:42;10.13;;;6.85;;
28844;SDS011;15976;47.938;7.758;2023-02-28T08:57:17;11.35;;;6.50;;
28844;SDS011;15976;47.938;7.758;2023-02-28T08:59:44;10.00;;;6.32;;
28844;SDS011;15976;47.938;7.758;2023-02-28T09:02:14;10.93;;;7.38;;
28844;SDS011;15976;47.938;7.758;2023-02-28T09:04:41;11.65;;;7.03;;
28844;SDS011;15976;47.938;7.758;2023-02-28T09:07:08;10.40;;;6.63;;
28844;SDS011;15976;47.938;7.758;2023-02-28T09:09:35;9.13;;;6.70;;
28844;SDS011;15976;47.938;7.758;2023-02-28T09:12:02;10.65;;;7.03;;
28844;SDS011;15976;47.938;7.758;2023-02-28T09:14:29;8.25;;;6.35;;
28844;SDS011;15976;47.938;7.758;2023-02-28T09:16:57;12.25;;;7.72;;
28844;SDS011;15976;47.938;7.758;2023-02-28T09:19:24;10.60;;;6.32;;
28844;SDS011;15976;47.938;7.758;2023-02-28T09:21:51;14.50;;;7.30;;
28844;SDS011;15976;47.938;7.758;2023-02-28T09:24:19;9.45;;;7.00;;
28844;SDS011;15976;47.938;7.758;2023-02-28T09:26:46;14.32;;;7.53;;
28844;SDS011;15976;47.938;7.758;2023-02-28T09:29:28;10.27;;;6.88;;
28844;SDS011;15976;47.938;7.758;2023-02-28T09:31:55;10.50;;;6.90;;
28844;SDS011;15976;47.938;7.758;2023-02-28T09:34:25;10.57;;;7.22;;
28844;SDS011;15976;47.938;7.758;2023-02-28T09:36:53;8.70;;;6.70;;
28844;SDS011;15976;47.938;7.758;2023-02-28T09:39:21;11.30;;;6.90;;
28844;SDS011;15976;47.938;7.758;2023-02-28T09:41:52;10.32;;;6.95;;
28844;SDS011;15976;47.938;7.758;2023-02-28T09:44:37;10.43;;;6.90;;
28844;SDS011;15976;47.938;7.758;2023-02-28T09:50:15;9.93;;;7.10;;
28844;SDS011;15976;47.938;7.758;2023-02-28T09:52:50;10.48;;;7.32;;
28844;SDS011;15976;47.938;7.758;2023-02-28T09:58:20;11.55;;;6.93;;
28844;SDS011;15976;47.938;7.758;2023-02-28T10:00:57;12.38;;;6.97;;
28844;SDS011;15976;47.938;7.758;2023-02-28T10:03:50;10.88;;;6.78;;
28844;SDS011;15976;47.938;7.758;2023-02-28T10:06:20;10.27;;;7.25;;
28844;SDS011;15976;47.938;7.758;2023-02-28T10:11:23;10.93;;;7.13;;
28844;SDS011;15976;47.938;7.758;2023-02-28T10:13:55;10.43;;;6.40;;
28844;SDS011;15976;47.938;7.758;2023-02-28T10:16:32;11.70;;;7.20;;
28844;SDS011;15976;47.938;7.758;2023-02-28T10:22:20;10.77;;;6.32;;
28844;SDS011;15976;47.938;7.758;2023-02-28T10:25:22;9.63;;;6.43;;
28844;SDS011;15976;47.938;7.758;2023-02-28T10:28:00;9.93;;;6.53;;
28844;SDS011;15976;47.938;7.758;2023-02-28T10:30:42;10.32;;;7.05;;
28844;SDS011;15976;47.938;7.758;2023-02-28T10:33:18;10.43;;;6.85;;
28844;SDS011;15976;47.938;7.758;2023-02-28T10:35:51;13.32;;;8.57;;
28844;SDS011;15976;47.938;7.758;2023-02-28T10:38:23;11.75;;;7.85;;
28844;SDS011;15976;47.938;7.758;2023-02-28T10:41:03;10.15;;;6.47;;
28844;SDS011;15976;47.938;7.758;2023-02-28T10:48:45;10.25;;;6.65;;
28844;SDS011;15976;47.938;7.758;2023-02-28T10:51:23;12.50;;;7.57;;
28844;SDS011;15976;47.938;7.758;2023-02-28T10:53:51;10.77;;;7.28;;
28844;SDS011;15976;47.938;7.758;2023-02-28T10:56:28;11.80;;;6.95;;
28844;SDS011;15976;47.938;7.758;2023-02-28T11:01:50;10.30;;;6.78;;
28844;SDS011;15976;47.938;7.758;2023-02-28T11:06:59;9.63;;;6.55;;
28844;SDS011;15976;47.938;7.758;2023-02-28T11:09:29;10.85;;;7.05;;
28844;SDS011;15976;47.938;7.758;2023-02-28T11:12:05;12.77;;;6.93;;
28844;SDS011;15976;47.938;7.758;2023-02-28T11:15:24;11.35;;;7.00;;
28844;SDS011;15976;47.938;7.758;2023-02-28T11:17:57;10.32;;;7.15;;
28844;SDS011;15976;47.938;7.758;2023-02-28T11:20:28;13.70;;;8.07;;
28844;SDS011;15976;47.938;7.758;2023-02-28T11:22:57;11.43;;;6.70;;
28844;SDS011;15976;47.938;7.758;2023-02-28T11:25:29;10.20;;;6.93;;
28844;SDS011;15976;47.938;7.758;2023-02-28T11:28:02;11.95;;;7.40;;
28844;SDS011;15976;47.938;7.758;2023-02-28T11:30:37;11.73;;;6.93;;
28844;SDS011;15976;47.938;7.758;2023-02-28T11:33:20;10.13;;;6.80;;
28844;SDS011;15976;47.938;7.758;2023-02-28T11:38:44;9.70;;;6.85;;
28844;SDS011;15976;47.938;7.758;2023-02-28T11:46:51;11.27;;;7.18;;
28844;SDS011;15976;47.938;7.758;2023-02-28T12:03:23;10.13;;;6.82;;
28844;SDS011;15976;47.938;7.758;2023-02-28T12:26:18;11.60;;;7.57;;
28844;SDS011;15976;47.938;7.758;2023-02-28T12:29:22;9.82;;;6.93;;
28844;SDS011;15976;47.938;7.758;2023-02-28T12:32:04;12.40;;;6.97;;
28844;SDS011;15976;47.938;7.758;2023-02-28T12:34:47;11.20;;;7.47;;
28844;SDS011;15976;47.938;7.758;2023-02-28T12:37:20;9.45;;;7.18;;
28844;SDS011;15976;47.938;7.758;2023-02-28T12:40:00;9.88;;;6.95;;
28844;SDS011;15976;47.938;7.758;2023-02-28T12:42:34;10.57;;;7.13;;
28844;SDS011;15976;47.938;7.758;2023-02-28T12:47:38;11.25;;;7.53;;
28844;SDS011;15976;47.938;7.758;2023-02-28T12:50:07;10.93;;;7.40;;
28844;SDS011;15976;47.938;7.758;2023-02-28T12:55:15;10.65;;;7.18;;
28844;SDS011;15976;47.938;7.758;2023-02-28T12:57:59;11.23;;;7.15;;
28844;SDS011;15976;47.938;7.758;2023-02-28T13:00:35;10.32;;;6.72;;
28844;SDS011;15976;47.938;7.758;2023-02-28T13:11:27;12.05;;;8.27;;
28844;SDS011;15976;47.938;7.758;2023-02-28T13:14:05;11.45;;;7.57;;
28844;SDS011;15976;47.938;7.758;2023-02-28T13:19:24;12.50;;;7.85;;
28844;SDS011;15976;47.938;7.758;2023-02-28T13:21:53;12.32;;;7.82;;
28844;SDS011;15976;47.938;7.758;2023-02-28T13:29:39;10.52;;;7.13;;
28844;SDS011;15976;47.938;7.758;2023-02-28T13:34:46;10.82;;;7.38;;
28844;SDS011;15976;47.938;7.758;2023-02-28T13:47:42;11.00;;;7.38;;
28844;SDS011;15976;47.938;7.758;2023-02-28T14:08:45;11.88;;;8.25;;
28844;SDS011;15976;47.938;7.758;2023-02-28T14:11:25;13.63;;;8.48;;
28844;SDS011;15976;47.938;7.758;2023-02-28T14:13:55;12.15;;;8.80;;
28844;SDS011;15976;47.938;7.758;2023-02-28T14:16:26;13.95;;;8.40;;
28844;SDS011;15976;47.938;7.758;2023-02-28T14:19:02;12.23;;;8.93;;
28844;SDS011;15976;47.938;7.758;2023-02-28T14:28:11;12.35;;;8.25;;
28844;SDS011;15976;47.938;7.758;2023-02-28T14:30:51;9.60;;;7.70;;
28844;SDS011;15976;47.938;7.758;2023-02-28T14:39:06;14.38;;;8.88;;
28844;SDS011;15976;47.938;7.758;2023-02-28T14:41:45;13.27;;;8.45;;
28844;SDS011;15976;47.938;7.758;2023-02-28T14:46:53;14.45;;;8.82;;
28844;SDS011;15976;47.938;7.758;2023-02-28T14:52:05;13.65;;;9.52;;
28844;SDS011;15976;47.938;7.758;2023-02-28T14:54:36;24.27;;;14.02;;
28844;SDS011;15976;47.938;7.758;2023-02-28T14:57:04;14.23;;;9.40;;
28844;SDS011;15976;47.938;7.758;2023-02-28T14:59:33;12.63;;;8.85;;
28844;SDS011;15976;47.938;7.758;2023-02-28T15:02:21;13.90;;;9.18;;
28844;SDS011;15976;47.938;7.758;2023-02-28T15:04:56;13.40;;;9.07;;
28844;SDS011;15976;47.938;7.758;2023-02-28T15:07:25;13.63;;;9.75;;
28844;SDS011;15976;47.938;7.758;2023-02-28T15:15:26;15.40;;;9.82;;
28844;SDS011;15976;47.938;7.758;2023-02-28T15:20:47;13.90;;;8.98;;
28844;SDS011;15976;47.938;7.758;2023-02-28T15:23:17;14.00;;;8.95;;
28844;SDS011;15976;47.938;7.758;2023-02-28T15:25:45;14.73;;;8.75;;
28844;SDS011;15976;47.938;7.758;2023-02-28T15:28:17;13.57;;;9.02;;
28844;SDS011;15976;47.938;7.758;2023-02-28T15:33:26;13.45;;;9.45;;
28844;SDS011;15976;47.938;7.758;2023-02-28T15:38:39;14.93;;;9.50;;
28844;SDS011;15976;47.938;7.758;2023-02-28T15:41:21;17.20;;;10.10;;
28844;SDS011;15976;47.938;7.758;2023-02-28T15:46:43;16.63;;;9.85;;
28844;SDS011;15976;47.938;7.758;2023-02-28T15:49:51;15.05;;;10.13;;
28844;SDS011;15976;47.938;7.758;2023-02-28T15:55:18;17.27;;;10.27;;
28844;SDS011;15976;47.938;7.758;2023-02-28T15:57:48;16.05;;;9.77;;
28844;SDS011;15976;47.938;7.758;2023-02-28T16:00:19;16.20;;;10.30;;
28844;SDS011;15976;47.938;7.758;2023-02-28T16:02:49;16.70;;;10.82;;
28844;SDS011;15976;47.938;7.758;2023-02-28T16:05:31;20.92;;;11.40;;
28844;SDS011;15976;47.938;7.758;2023-02-28T16:08:00;15.07;;;10.45;;
28844;SDS011;15976;47.938;7.758;2023-02-28T16:10:33;15.05;;;9.45;;
28844;SDS011;15976;47.938;7.758;2023-02-28T16:13:03;17.77;;;11.00;;
28844;SDS011;15976;47.938;7.758;2023-02-28T16:15:31;17.08;;;10.48;;
28844;SDS011;15976;47.938;7.758;2023-02-28T16:18:08;15.48;;;9.68;;
28844;SDS011;15976;47.938;7.758;2023-02-28T16:20:39;16.35;;;10.15;;
28844;SDS011;15976;47.938;7.758;2023-02-28T16:23:07;15.32;;;9.40;;
28844;SDS011;15976;47.938;7.758;2023-02-28T16:25:36;15.57;;;8.85;;
28844;SDS011;15976;47.938;7.758;2023-02-28T16:28:20;15.77;;;9.48;;
28844;SDS011;15976;47.938;7.758;2023-02-28T16:30:51;16.88;;;8.65;;
28844;SDS011;15976;47.938;7.758;2023-02-28T16:33:19;14.18;;;9.18;;
28844;SDS011;15976;47.938;7.758;2023-02-28T16:35:46;16.15;;;10.25;;
28844;SDS011;15976;47.938;7.758;2023-02-28T16:38:13;16.30;;;10.32;;
28844;SDS011;15976;47.938;7.758;2023-02-28T16:40:40;19.38;;;12.10;;
28844;SDS011;15976;47.938;7.758;2023-02-28T16:43:08;14.60;;;10.02;;
28844;SDS011;15976;47.938;7.758;2023-02-28T16:45:41;14.23;;;10.48;;
28844;SDS011;15976;47.938;7.758;2023-02-28T16:48:13;16.55;;;10.30;;
28844;SDS011;15976;47.938;7.758;2023-02-28T16:50:42;16.15;;;10.18;;
28844;SDS011;15976;47.938;7.758;2023-02-28T16:53:12;18.95;;;10.30;;
28844;SDS011;15976;47.938;7.758;2023-02-28T16:55:40;17.63;;;11.35;;
28844;SDS011;15976;47.938;7.758;2023-02-28T16:58:10;18.92;;;11.40;;
28844;SDS011;15976;47.938;7.758;2023-02-28T17:00:41;16.50;;;10.85;;
28844;SDS011;15976;47.938;7.758;2023-02-28T17:03:15;17.77;;;11.70;;
28844;SDS011;15976;47.938;7.758;2023-02-28T17:05:58;24.27;;;12.95;;
28844;SDS011;15976;47.938;7.758;2023-02-28T17:08:28;19.05;;;12.82;;
28844;SDS011;15976;47.938;7.758;2023-02-28T17:10:56;18.58;;;11.38;;
28844;SDS011;15976;47.938;7.758;2023-02-28T17:13:23;17.80;;;11.70;;
28844;SDS011;15976;47.938;7.758;2023-02-28T17:15:50;17.38;;;13.70;;
28844;SDS011;15976;47.938;7.758;2023-02-28T17:18:18;16.48;;;10.70;;
28844;SDS011;15976;47.938;7.758;2023-02-28T17:20:47;18.73;;;12.57;;
28844;SDS011;15976;47.938;7.758;2023-02-28T17:23:15;17.00;;;10.93;;
28844;SDS011;15976;47.938;7.758;2023-02-28T17:25:42;21.33;;;14.35;;
28844;SDS011;15976;47.938;7.758;2023-02-28T17:28:22;18.33;;;12.32;;
28844;SDS011;15976;47.938;7.758;2023-02-28T17:30:50;15.15;;;9.68;;
28844;SDS011;15976;47.938;7.758;2023-02-28T17:33:17;21.33;;;14.38;;
28844;SDS011;15976;47.938;7.758;2023-02-28T17:35:44;16.33;;;10.50;;
28844;SDS011;15976;47.938;7.758;2023-02-28T17:38:20;18.08;;;11.90;;
28844;SDS011;15976;47.938;7.758;2023-02-28T17:40:49;15.00;;;10.43;;
28844;SDS011;15976;47.938;7.758;2023-02-28T17:43:16;19.23;;;11.20;;
28844;SDS011;15976;47.938;7.758;2023-02-28T17:45:43;21.38;;;11.75;;
28844;SDS011;15976;47.938;7.758;2023-02-28T17:48:11;19.73;;;11.68;;
28844;SDS011;15976;47.938;7.758;2023-02-28T17:50:39;16.60;;;10.90;;
28844;SDS011;15976;47.938;7.758;2023-02-28T17:53:06;18.48;;;11.38;;
28844;SDS011;15976;47.938;7.758;2023-02-28T17:55:34;27.77;;;17.40;;
28844;SDS011;15976;47.938;7.758;2023-02-28T17:58:02;15.13;;;10.82;;
28844;SDS011;15976;47.938;7.758;2023-02-28T18:00:30;27.33;;;16.65;;
28844;SDS011;15976;47.938;7.758;2023-02-28T18:02:59;29.30;;;16.50;;
28844;SDS011;15976;47.938;7.758;2023-02-28T18:05:26;23.25;;;13.88;;
28844;SDS011;15976;47.938;7.758;2023-02-28T18:07:54;20.02;;;12.02;;
28844;SDS011;15976;47.938;7.758;2023-02-28T18:10:21;22.55;;;13.70;;
28844;SDS011;15976;47.938;7.758;2023-02-28T18:12:50;22.55;;;13.40;;
28844;SDS011;15976;47.938;7.758;2023-02-28T18:15:18;28.70;;;15.85;;
28844;SDS011;15976;47.938;7.758;2023-02-28T18:17:47;22.02;;;13.02;;
28844;SDS011;15976;47.938;7.758;2023-02-28T18:20:15;24.35;;;15.77;;
28844;SDS011;15976;47.938;7.758;2023-02-28T18:22:44;25.60;;;13.68;;
28844;SDS011;15976;47.938;7.758;2023-02-28T18:25:11;41.72;;;24.13;;
28844;SDS011;15976;47.938;7.758;2023-02-28T18:27:43;25.75;;;14.77;;
28844;SDS011;15976;47.938;7.758;2023-02-28T18:30:20;21.70;;;12.77;;
28844;SDS011;15976;47.938;7.758;2023-02-28T18:32:47;26.05;;;15.20;;
28844;SDS011;15976;47.938;7.758;2023-02-28T18:35:14;24.48;;;14.68;;
28844;SDS011;15976;47.938;7.758;2023-02-28T18:37:42;20.65;;;11.25;;
28844;SDS011;15976;47.938;7.758;2023-02-28T18:40:09;19.45;;;11.90;;
28844;SDS011;15976;47.938;7.758;2023-02-28T18:42:36;20.15;;;11.68;;
28844;SDS011;15976;47.938;7.758;2023-02-28T18:45:04;18.05;;;11.48;;
28844;SDS011;15976;47.938;7.758;2023-02-28T18:47:33;20.13;;;11.88;;
28844;SDS011;15976;47.938;7.758;2023-02-28T18:50:00;19.08;;;12.00;;
28844;SDS011;15976;47.938;7.758;2023-02-28T18:52:27;20.15;;;12.77;;
28844;SDS011;15976;47.938;7.758;2023-02-28T18:54:55;20.98;;;12.57;;
28844;SDS011;15976;47.938;7.758;2023-02-28T18:57:25;18.58;;;12.00;;
28844;SDS011;15976;47.938;7.758;2023-02-28T18:59:51;23.83;;;12.57;;
28844;SDS011;15976;47.938;7.758;2023-02-28T19:02:18;18.73;;;11.80;;
28844;SDS011;15976;47.938;7.758;2023-02-28T19:04:45;22.38;;;13.70;;
28844;SDS011;15976;47.938;7.758;2023-02-28T19:07:12;21.48;;;13.10;;
28844;SDS011;15976;47.938;7.758;2023-02-28T19:09:46;23.15;;;13.70;;
28844;SDS011;15976;47.938;7.758;2023-02-28T19:13:06;25.65;;;12.50;;
28844;SDS011;15976;47.938;7.758;2023-02-28T19:15:39;23.02;;;12.85;;
28844;SDS011;15976;47.938;7.758;2023-02-28T19:18:06;22.13;;;11.38;;
28844;SDS011;15976;47.938;7.758;2023-02-28T19:20:33;18.55;;;11.20;;
28844;SDS011;15976;47.938;7.758;2023-02-28T19:23:01;19.70;;;12.98;;
28844;SDS011;15976;47.938;7.758;2023-02-28T19:25:28;20.23;;;12.02;;
28844;SDS011;15976;47.938;7.758;2023-02-28T19:27:56;22.35;;;11.98;;
28844;SDS011;15976;47.938;7.758;2023-02-28T19:30:23;19.65;;;12.82;;
28844;SDS011;15976;47.938;7.758;2023-02-28T19:32:51;20.67;;;12.50;;
28844;SDS011;15976;47.938;7.758;2023-02-28T19:35:18;24.65;;;13.88;;
28844;SDS011;15976;47.938;7.758;2023-02-28T19:37:45;21.50;;;12.40;;
28844;SDS011;15976;47.938;7.758;2023-02-28T19:40:12;21.73;;;12.50;;